sensor_id;sensor_type;location;lat;lon;timestamp;P1;durP1;ratioP1;P2;durP2;ratioP2
22417;SDS011;11376;50.932;4.442;2023-04-23T00:02:20;36.30;;;20.87;;
22417;SDS011;11376;50.932;4.442;2023-04-23T00:04:50;31.00;;;19.63;;
22417;SDS011;11376;50.932;4.442;2023-04-23T00:07:19;36.60;;;21.17;;
22417;SDS011;11376;50.932;4.442;2023-04-23T00:09:45;35.60;;;20.70;;
22417;SDS011;11376;50.932;4.442;2023-04-23T00:12:14;31.63;;;19.60;;
22417;SDS011;11376;50.932;4.442;2023-04-23T00:14:40;33.67;;;20.03;;
22417;SDS011;11376;50.932;4.442;2023-04-23T00:17:05;32.80;;;20.10;;
22417;SDS011;11376;50.932;4.442;2023-04-23T00:19:31;31.53;;;19.57;;
22417;SDS011;11376;50.932;4.442;2023-04-23T00:21:57;29.33;;;20.03;;
22417;SDS011;11376;50.932;4.442;2023-04-23T00:24:22;32.30;;;19.03;;
22417;SDS011;11376;50.932;4.442;2023-04-23T00:26:48;29.77;;;18.60;;
22417;SDS011;11376;50.932;4.442;2023-04-23T00:29:13;29.63;;;19.00;;
22417;SDS011;11376;50.932;4.442;2023-04-23T00:31:39;28.17;;;17.90;;
22417;SDS011;11376;50.932;4.442;2023-04-23T00:34:05;30.53;;;18.30;;
22417;SDS011;11376;50.932;4.442;2023-04-23T00:36:30;27.87;;;15.30;;
22417;SDS011;11376;50.932;4.442;2023-04-23T00:38:56;25.23;;;17.33;;
22417;SDS011;11376;50.932;4.442;2023-04-23T00:41:22;27.20;;;16.90;;
22417;SDS011;11376;50.932;4.442;2023-04-23T00:43:48;28.20;;;16.87;;
22417;SDS011;11376;50.932;4.442;2023-04-23T00:46:17;24.50;;;15.93;;
22417;SDS011;11376;50.932;4.442;2023-04-23T00:48:43;28.07;;;16.37;;
22417;SDS011;11376;50.932;4.442;2023-04-23T00:51:10;20.87;;;14.13;;
22417;SDS011;11376;50.932;4.442;2023-04-23T00:53:36;22.87;;;14.27;;
22417;SDS011;11376;50.932;4.442;2023-04-23T00:56:02;27.67;;;15.83;;
22417;SDS011;11376;50.932;4.442;2023-04-23T00:58:29;21.93;;;13.37;;
22417;SDS011;11376;50.932;4.442;2023-04-23T01:00:55;19.43;;;12.63;;
22417;SDS011;11376;50.932;4.442;2023-04-23T01:03:22;23.57;;;13.97;;
22417;SDS011;11376;50.932;4.442;2023-04-23T01:05:50;21.93;;;13.50;;
22417;SDS011;11376;50.932;4.442;2023-04-23T01:08:16;21.97;;;14.03;;
22417;SDS011;11376;50.932;4.442;2023-04-23T01:10:46;19.37;;;12.73;;
22417;SDS011;11376;50.932;4.442;2023-04-23T01:13:12;23.87;;;12.90;;
22417;SDS011;11376;50.932;4.442;2023-04-23T01:15:38;17.90;;;11.13;;
22417;SDS011;11376;50.932;4.442;2023-04-23T01:18:04;15.37;;;10.07;;
22417;SDS011;11376;50.932;4.442;2023-04-23T01:20:32;14.33;;;10.17;;
22417;SDS011;11376;50.932;4.442;2023-04-23T01:23:02;16.70;;;10.97;;
22417;SDS011;11376;50.932;4.442;2023-04-23T01:25:28;17.30;;;10.87;;
22417;SDS011;11376;50.932;4.442;2023-04-23T01:27:54;18.80;;;9.90;;
22417;SDS011;11376;50.932;4.442;2023-04-23T01:30:21;15.00;;;9.27;;
22417;SDS011;11376;50.932;4.442;2023-04-23T01:32:49;13.57;;;8.80;;
22417;SDS011;11376;50.932;4.442;2023-04-23T01:35:14;15.87;;;9.40;;
22417;SDS011;11376;50.932;4.442;2023-04-23T01:37:40;16.17;;;9.40;;
22417;SDS011;11376;50.932;4.442;2023-04-23T01:40:07;15.67;;;10.07;;
22417;SDS011;11376;50.932;4.442;2023-04-23T01:42:34;14.77;;;9.53;;
22417;SDS011;11376;50.932;4.442;2023-04-23T01:45:01;14.90;;;8.10;;
22417;SDS011;11376;50.932;4.442;2023-04-23T01:47:27;13.67;;;8.40;;
22417;SDS011;11376;50.932;4.442;2023-04-23T01:49:53;15.43;;;9.17;;
22417;SDS011;11376;50.932;4.442;2023-04-23T01:52:19;17.20;;;7.67;;
22417;SDS011;11376;50.932;4.442;2023-04-23T01:54:44;14.93;;;6.33;;
22417;SDS011;11376;50.932;4.442;2023-04-23T01:57:10;13.63;;;8.33;;
22417;SDS011;11376;50.932;4.442;2023-04-23T01:59:36;13.13;;;8.10;;
22417;SDS011;11376;50.932;4.442;2023-04-23T02:02:03;10.90;;;5.80;;
22417;SDS011;11376;50.932;4.442;2023-04-23T02:04:29;12.10;;;6.60;;
22417;SDS011;11376;50.932;4.442;2023-04-23T02:06:55;13.00;;;7.93;;
22417;SDS011;11376;50.932;4.442;2023-04-23T02:09:21;12.93;;;8.03;;
22417;SDS011;11376;50.932;4.442;2023-04-23T02:11:46;15.50;;;8.50;;
22417;SDS011;11376;50.932;4.442;2023-04-23T02:14:12;16.00;;;8.37;;
22417;SDS011;11376;50.932;4.442;2023-04-23T02:16:37;12.07;;;6.70;;
22417;SDS011;11376;50.932;4.442;2023-04-23T02:19:03;14.00;;;8.10;;
22417;SDS011;11376;50.932;4.442;2023-04-23T02:21:30;11.10;;;6.63;;
22417;SDS011;11376;50.932;4.442;2023-04-23T02:23:55;13.27;;;7.33;;
22417;SDS011;11376;50.932;4.442;2023-04-23T02:26:21;12.10;;;7.20;;
22417;SDS011;11376;50.932;4.442;2023-04-23T02:28:47;12.07;;;6.77;;
22417;SDS011;11376;50.932;4.442;2023-04-23T02:31:13;8.93;;;4.47;;
22417;SDS011;11376;50.932;4.442;2023-04-23T02:33:40;11.77;;;7.30;;
22417;SDS011;11376;50.932;4.442;2023-04-23T02:36:06;11.53;;;6.00;;
22417;SDS011;11376;50.932;4.442;2023-04-23T02:38:32;10.93;;;7.00;;
22417;SDS011;11376;50.932;4.442;2023-04-23T02:40:58;10.73;;;6.87;;
22417;SDS011;11376;50.932;4.442;2023-04-23T02:43:23;12.00;;;6.03;;
22417;SDS011;11376;50.932;4.442;2023-04-23T02:45:49;13.03;;;6.57;;
22417;SDS011;11376;50.932;4.442;2023-04-23T02:48:14;13.70;;;7.30;;
22417;SDS011;11376;50.932;4.442;2023-04-23T02:50:40;11.33;;;7.00;;
22417;SDS011;11376;50.932;4.442;2023-04-23T02:53:06;13.03;;;7.00;;
22417;SDS011;11376;50.932;4.442;2023-04-23T02:55:32;15.60;;;7.50;;
22417;SDS011;11376;50.932;4.442;2023-04-23T02:57:58;10.37;;;6.63;;
22417;SDS011;11376;50.932;4.442;2023-04-23T03:00:24;13.50;;;7.43;;
22417;SDS011;11376;50.932;4.442;2023-04-23T03:02:50;10.40;;;6.97;;
22417;SDS011;11376;50.932;4.442;2023-04-23T03:05:16;13.13;;;7.40;;
22417;SDS011;11376;50.932;4.442;2023-04-23T03:07:42;13.00;;;7.77;;
22417;SDS011;11376;50.932;4.442;2023-04-23T03:10:07;13.33;;;7.60;;
22417;SDS011;11376;50.932;4.442;2023-04-23T03:12:33;12.17;;;7.10;;
22417;SDS011;11376;50.932;4.442;2023-04-23T03:14:59;13.63;;;7.80;;
22417;SDS011;11376;50.932;4.442;2023-04-23T03:17:25;13.73;;;7.60;;
22417;SDS011;11376;50.932;4.442;2023-04-23T03:19:50;11.00;;;7.40;;
22417;SDS011;11376;50.932;4.442;2023-04-23T03:22:16;15.30;;;7.63;;
22417;SDS011;11376;50.932;4.442;2023-04-23T03:24:42;12.70;;;7.97;;
22417;SDS011;11376;50.932;4.442;2023-04-23T03:27:07;12.63;;;6.97;;
22417;SDS011;11376;50.932;4.442;2023-04-23T03:29:33;16.33;;;8.67;;
22417;SDS011;11376;50.932;4.442;2023-04-23T03:31:59;14.60;;;8.13;;
22417;SDS011;11376;50.932;4.442;2023-04-23T03:34:25;12.80;;;7.90;;
22417;SDS011;11376;50.932;4.442;2023-04-23T03:36:51;14.67;;;8.60;;
22417;SDS011;11376;50.932;4.442;2023-04-23T03:39:16;12.23;;;7.90;;
22417;SDS011;11376;50.932;4.442;2023-04-23T03:41:42;13.87;;;8.53;;
22417;SDS011;11376;50.932;4.442;2023-04-23T03:44:07;15.07;;;8.10;;
22417;SDS011;11376;50.932;4.442;2023-04-23T03:46:33;15.30;;;8.93;;
22417;SDS011;11376;50.932;4.442;2023-04-23T03:48:59;14.27;;;8.43;;
22417;SDS011;11376;50.932;4.442;2023-04-23T03:51:25;16.13;;;8.33;;
22417;SDS011;11376;50.932;4.442;2023-04-23T03:53:51;14.10;;;8.23;;
22417;SDS011;11376;50.932;4.442;2023-04-23T03:56:17;14.63;;;8.20;;
22417;SDS011;11376;50.932;4.442;2023-04-23T03:58:42;13.97;;;8.17;;
22417;SDS011;11376;50.932;4.442;2023-04-23T04:01:08;12.70;;;8.23;;
22417;SDS011;11376;50.932;4.442;2023-04-23T04:03:33;13.10;;;8.03;;
22417;SDS011;11376;50.932;4.442;2023-04-23T04:06:00;13.63;;;7.73;;
22417;SDS011;11376;50.932;4.442;2023-04-23T04:08:26;12.70;;;7.80;;
22417;SDS011;11376;50.932;4.442;2023-04-23T04:10:51;15.67;;;8.37;;
22417;SDS011;11376;50.932;4.442;2023-04-23T04:13:17;18.27;;;8.10;;
22417;SDS011;11376;50.932;4.442;2023-04-23T04:15:43;16.37;;;8.47;;
22417;SDS011;11376;50.932;4.442;2023-04-23T04:18:09;13.53;;;8.20;;
22417;SDS011;11376;50.932;4.442;2023-04-23T04:20:34;14.37;;;7.57;;
22417;SDS011;11376;50.932;4.442;2023-04-23T04:23:00;14.13;;;7.97;;
22417;SDS011;11376;50.932;4.442;2023-04-23T04:25:26;17.77;;;7.73;;
22417;SDS011;11376;50.932;4.442;2023-04-23T04:27:52;16.43;;;8.10;;
22417;SDS011;11376;50.932;4.442;2023-04-23T04:30:18;15.80;;;7.70;;
22417;SDS011;11376;50.932;4.442;2023-04-23T04:32:45;14.33;;;7.53;;
22417;SDS011;11376;50.932;4.442;2023-04-23T04:35:11;13.30;;;7.43;;
22417;SDS011;11376;50.932;4.442;2023-04-23T04:37:38;12.13;;;7.20;;
22417;SDS011;11376;50.932;4.442;2023-04-23T04:40:05;12.60;;;7.23;;
22417;SDS011;11376;50.932;4.442;2023-04-23T04:42:31;14.00;;;8.00;;
22417;SDS011;11376;50.932;4.442;2023-04-23T04:44:57;13.47;;;7.70;;
22417;SDS011;11376;50.932;4.442;2023-04-23T04:47:23;15.30;;;7.67;;
22417;SDS011;11376;50.932;4.442;2023-04-23T04:49:49;13.63;;;7.30;;
22417;SDS011;11376;50.932;4.442;2023-04-23T04:52:15;14.87;;;7.83;;
22417;SDS011;11376;50.932;4.442;2023-04-23T04:54:41;16.73;;;8.10;;
22417;SDS011;11376;50.932;4.442;2023-04-23T04:57:07;14.47;;;7.40;;
22417;SDS011;11376;50.932;4.442;2023-04-23T04:59:33;15.77;;;7.83;;
22417;SDS011;11376;50.932;4.442;2023-04-23T05:01:58;14.87;;;6.90;;
22417;SDS011;11376;50.932;4.442;2023-04-23T05:04:24;13.27;;;7.70;;
22417;SDS011;11376;50.932;4.442;2023-04-23T05:06:50;12.20;;;7.07;;
22417;SDS011;11376;50.932;4.442;2023-04-23T05:09:16;12.80;;;7.73;;
22417;SDS011;11376;50.932;4.442;2023-04-23T05:11:41;15.07;;;7.13;;
22417;SDS011;11376;50.932;4.442;2023-04-23T05:14:07;11.97;;;6.40;;
22417;SDS011;11376;50.932;4.442;2023-04-23T05:16:33;13.93;;;6.73;;
22417;SDS011;11376;50.932;4.442;2023-04-23T05:18:59;12.83;;;5.70;;
22417;SDS011;11376;50.932;4.442;2023-04-23T05:21:25;13.63;;;5.73;;
22417;SDS011;11376;50.932;4.442;2023-04-23T05:23:52;11.63;;;5.90;;
22417;SDS011;11376;50.932;4.442;2023-04-23T05:26:18;11.53;;;5.57;;
22417;SDS011;11376;50.932;4.442;2023-04-23T05:28:44;12.33;;;4.90;;
22417;SDS011;11376;50.932;4.442;2023-04-23T05:31:10;13.27;;;5.20;;
22417;SDS011;11376;50.932;4.442;2023-04-23T05:33:36;10.20;;;4.53;;
22417;SDS011;11376;50.932;4.442;2023-04-23T05:36:02;11.90;;;4.67;;
22417;SDS011;11376;50.932;4.442;2023-04-23T05:38:28;11.40;;;4.60;;
22417;SDS011;11376;50.932;4.442;2023-04-23T05:40:53;10.10;;;4.33;;
22417;SDS011;11376;50.932;4.442;2023-04-23T05:43:19;9.20;;;4.20;;
22417;SDS011;11376;50.932;4.442;2023-04-23T05:45:45;12.07;;;4.00;;
22417;SDS011;11376;50.932;4.442;2023-04-23T05:48:10;11.83;;;4.10;;
22417;SDS011;11376;50.932;4.442;2023-04-23T05:50:36;10.50;;;3.67;;
22417;SDS011;11376;50.932;4.442;2023-04-23T05:53:03;12.07;;;4.20;;
22417;SDS011;11376;50.932;4.442;2023-04-23T05:55:29;9.83;;;3.63;;
22417;SDS011;11376;50.932;4.442;2023-04-23T05:57:54;9.90;;;3.73;;
22417;SDS011;11376;50.932;4.442;2023-04-23T06:00:20;8.90;;;3.43;;
22417;SDS011;11376;50.932;4.442;2023-04-23T06:02:45;9.17;;;3.50;;
22417;SDS011;11376;50.932;4.442;2023-04-23T06:05:11;11.70;;;4.30;;
22417;SDS011;11376;50.932;4.442;2023-04-23T06:07:37;11.13;;;3.90;;
22417;SDS011;11376;50.932;4.442;2023-04-23T06:10:03;15.30;;;4.40;;
22417;SDS011;11376;50.932;4.442;2023-04-23T06:12:30;12.67;;;4.53;;
22417;SDS011;11376;50.932;4.442;2023-04-23T06:14:56;9.30;;;4.40;;
22417;SDS011;11376;50.932;4.442;2023-04-23T06:17:22;11.20;;;3.93;;
22417;SDS011;11376;50.932;4.442;2023-04-23T06:19:47;9.13;;;3.77;;
22417;SDS011;11376;50.932;4.442;2023-04-23T06:22:13;11.63;;;3.37;;
22417;SDS011;11376;50.932;4.442;2023-04-23T06:24:38;10.17;;;3.63;;
22417;SDS011;11376;50.932;4.442;2023-04-23T06:27:04;10.67;;;3.27;;
22417;SDS011;11376;50.932;4.442;2023-04-23T06:29:31;9.07;;;3.07;;
22417;SDS011;11376;50.932;4.442;2023-04-23T06:31:59;8.70;;;3.30;;
22417;SDS011;11376;50.932;4.442;2023-04-23T06:34:26;9.43;;;3.00;;
22417;SDS011;11376;50.932;4.442;2023-04-23T06:36:51;8.70;;;2.93;;
22417;SDS011;11376;50.932;4.442;2023-04-23T06:39:18;11.33;;;2.80;;
22417;SDS011;11376;50.932;4.442;2023-04-23T06:41:43;10.27;;;2.67;;
22417;SDS011;11376;50.932;4.442;2023-04-23T06:44:09;9.27;;;2.43;;
22417;SDS011;11376;50.932;4.442;2023-04-23T06:46:35;6.70;;;2.23;;
22417;SDS011;11376;50.932;4.442;2023-04-23T06:49:00;8.33;;;2.07;;
22417;SDS011;11376;50.932;4.442;2023-04-23T06:51:26;7.27;;;2.00;;
22417;SDS011;11376;50.932;4.442;2023-04-23T06:53:52;8.77;;;2.37;;
22417;SDS011;11376;50.932;4.442;2023-04-23T06:56:18;11.10;;;2.63;;
22417;SDS011;11376;50.932;4.442;2023-04-23T06:58:45;9.33;;;1.97;;
22417;SDS011;11376;50.932;4.442;2023-04-23T07:01:11;13.97;;;2.13;;
22417;SDS011;11376;50.932;4.442;2023-04-23T07:03:37;8.77;;;2.30;;
22417;SDS011;11376;50.932;4.442;2023-04-23T07:06:03;6.57;;;2.10;;
22417;SDS011;11376;50.932;4.442;2023-04-23T07:08:29;4.47;;;1.13;;
22417;SDS011;11376;50.932;4.442;2023-04-23T07:10:54;7.10;;;1.83;;
22417;SDS011;11376;50.932;4.442;2023-04-23T07:13:20;12.00;;;2.17;;
22417;SDS011;11376;50.932;4.442;2023-04-23T07:15:46;9.27;;;1.87;;
22417;SDS011;11376;50.932;4.442;2023-04-23T07:18:13;13.87;;;2.13;;
22417;SDS011;11376;50.932;4.442;2023-04-23T07:20:38;14.10;;;2.13;;
22417;SDS011;11376;50.932;4.442;2023-04-23T07:23:04;9.17;;;1.80;;
22417;SDS011;11376;50.932;4.442;2023-04-23T07:25:30;14.20;;;2.10;;
22417;SDS011;11376;50.932;4.442;2023-04-23T07:27:56;7.63;;;1.80;;
22417;SDS011;11376;50.932;4.442;2023-04-23T07:30:23;9.53;;;2.13;;
22417;SDS011;11376;50.932;4.442;2023-04-23T07:32:49;8.63;;;1.70;;
22417;SDS011;11376;50.932;4.442;2023-04-23T07:35:15;10.10;;;2.57;;
22417;SDS011;11376;50.932;4.442;2023-04-23T07:37:40;8.37;;;2.10;;
22417;SDS011;11376;50.932;4.442;2023-04-23T07:40:06;6.17;;;1.27;;
22417;SDS011;11376;50.932;4.442;2023-04-23T07:42:33;13.00;;;1.50;;
22417;SDS011;11376;50.932;4.442;2023-04-23T07:44:58;9.10;;;2.20;;
22417;SDS011;11376;50.932;4.442;2023-04-23T07:47:24;11.10;;;2.00;;
22417;SDS011;11376;50.932;4.442;2023-04-23T07:49:49;9.03;;;2.17;;
22417;SDS011;11376;50.932;4.442;2023-04-23T07:52:15;10.93;;;1.97;;
22417;SDS011;11376;50.932;4.442;2023-04-23T07:54:41;11.10;;;1.83;;
22417;SDS011;11376;50.932;4.442;2023-04-23T07:57:08;10.53;;;1.87;;
22417;SDS011;11376;50.932;4.442;2023-04-23T07:59:35;6.03;;;1.73;;
22417;SDS011;11376;50.932;4.442;2023-04-23T08:02:03;7.30;;;1.83;;
22417;SDS011;11376;50.932;4.442;2023-04-23T08:04:29;9.77;;;2.20;;
22417;SDS011;11376;50.932;4.442;2023-04-23T08:06:55;10.67;;;2.87;;
22417;SDS011;11376;50.932;4.442;2023-04-23T08:09:20;13.27;;;2.23;;
22417;SDS011;11376;50.932;4.442;2023-04-23T08:11:46;11.47;;;3.30;;
22417;SDS011;11376;50.932;4.442;2023-04-23T08:14:12;8.43;;;1.97;;
22417;SDS011;11376;50.932;4.442;2023-04-23T08:16:38;11.13;;;1.73;;
22417;SDS011;11376;50.932;4.442;2023-04-23T08:19:04;7.93;;;1.67;;
22417;SDS011;11376;50.932;4.442;2023-04-23T08:21:30;11.90;;;2.33;;
22417;SDS011;11376;50.932;4.442;2023-04-23T08:23:57;5.77;;;1.40;;
22417;SDS011;11376;50.932;4.442;2023-04-23T08:26:23;13.23;;;1.90;;
22417;SDS011;11376;50.932;4.442;2023-04-23T08:28:48;8.47;;;1.40;;
22417;SDS011;11376;50.932;4.442;2023-04-23T08:31:14;7.27;;;1.60;;
22417;SDS011;11376;50.932;4.442;2023-04-23T08:33:41;11.33;;;2.27;;
22417;SDS011;11376;50.932;4.442;2023-04-23T08:36:06;7.30;;;1.37;;
22417;SDS011;11376;50.932;4.442;2023-04-23T08:38:33;5.03;;;1.20;;
22417;SDS011;11376;50.932;4.442;2023-04-23T08:40:58;6.00;;;1.40;;
22417;SDS011;11376;50.932;4.442;2023-04-23T08:43:33;11.35;;;1.90;;
22417;SDS011;11376;50.932;4.442;2023-04-23T08:46:05;8.40;;;1.40;;
22417;SDS011;11376;50.932;4.442;2023-04-23T08:48:35;9.93;;;1.60;;
22417;SDS011;11376;50.932;4.442;2023-04-23T08:51:01;9.05;;;1.55;;
22417;SDS011;11376;50.932;4.442;2023-04-23T08:53:28;9.43;;;1.65;;
22417;SDS011;11376;50.932;4.442;2023-04-23T08:55:56;4.93;;;1.05;;
22417;SDS011;11376;50.932;4.442;2023-04-23T08:58:23;8.07;;;1.27;;
22417;SDS011;11376;50.932;4.442;2023-04-23T09:00:52;9.40;;;1.63;;
22417;SDS011;11376;50.932;4.442;2023-04-23T09:03:18;6.32;;;1.15;;
22417;SDS011;11376;50.932;4.442;2023-04-23T09:05:45;7.03;;;1.30;;
22417;SDS011;11376;50.932;4.442;2023-04-23T09:08:11;7.38;;;1.15;;
22417;SDS011;11376;50.932;4.442;2023-04-23T09:10:38;8.23;;;1.30;;
22417;SDS011;11376;50.932;4.442;2023-04-23T09:13:06;7.55;;;1.63;;
22417;SDS011;11376;50.932;4.442;2023-04-23T09:15:32;7.65;;;0.88;;
22417;SDS011;11376;50.932;4.442;2023-04-23T09:18:02;5.70;;;1.33;;
22417;SDS011;11376;50.932;4.442;2023-04-23T09:20:28;8.05;;;0.90;;
22417;SDS011;11376;50.932;4.442;2023-04-23T09:22:54;6.15;;;1.40;;
22417;SDS011;11376;50.932;4.442;2023-04-23T09:25:21;8.77;;;1.38;;
22417;SDS011;11376;50.932;4.442;2023-04-23T09:27:48;4.22;;;0.88;;
22417;SDS011;11376;50.932;4.442;2023-04-23T09:30:15;7.90;;;1.38;;
22417;SDS011;11376;50.932;4.442;2023-04-23T09:32:41;1.52;;;0.75;;
22417;SDS011;11376;50.932;4.442;2023-04-23T09:35:11;4.03;;;1.00;;
22417;SDS011;11376;50.932;4.442;2023-04-23T09:37:40;7.30;;;1.13;;
22417;SDS011;11376;50.932;4.442;2023-04-23T09:40:13;5.88;;;1.20;;
22417;SDS011;11376;50.932;4.442;2023-04-23T09:42:47;9.85;;;1.33;;
22417;SDS011;11376;50.932;4.442;2023-04-23T09:45:14;4.95;;;0.80;;
22417;SDS011;11376;50.932;4.442;2023-04-23T09:47:43;7.97;;;1.02;;
22417;SDS011;11376;50.932;4.442;2023-04-23T09:50:13;4.28;;;0.90;;
22417;SDS011;11376;50.932;4.442;2023-04-23T09:52:39;7.15;;;0.93;;
22417;SDS011;11376;50.932;4.442;2023-04-23T09:55:05;7.00;;;1.35;;
22417;SDS011;11376;50.932;4.442;2023-04-23T09:57:39;6.78;;;0.90;;
22417;SDS011;11376;50.932;4.442;2023-04-23T10:00:12;7.25;;;1.30;;
22417;SDS011;11376;50.932;4.442;2023-04-23T10:02:44;6.68;;;1.20;;
22417;SDS011;11376;50.932;4.442;2023-04-23T10:05:17;6.78;;;1.00;;
22417;SDS011;11376;50.932;4.442;2023-04-23T10:07:46;6.35;;;1.52;;
22417;SDS011;11376;50.932;4.442;2023-04-23T10:10:13;8.77;;;1.27;;
22417;SDS011;11376;50.932;4.442;2023-04-23T10:12:40;5.60;;;1.13;;
22417;SDS011;11376;50.932;4.442;2023-04-23T10:15:10;4.03;;;0.93;;
22417;SDS011;11376;50.932;4.442;2023-04-23T10:17:37;6.80;;;1.02;;
22417;SDS011;11376;50.932;4.442;2023-04-23T10:20:04;7.75;;;1.30;;
22417;SDS011;11376;50.932;4.442;2023-04-23T10:22:32;6.47;;;1.20;;
22417;SDS011;11376;50.932;4.442;2023-04-23T10:24:59;7.75;;;1.00;;
22417;SDS011;11376;50.932;4.442;2023-04-23T10:27:28;9.45;;;1.50;;
22417;SDS011;11376;50.932;4.442;2023-04-23T10:29:58;9.23;;;1.45;;
22417;SDS011;11376;50.932;4.442;2023-04-23T10:32:25;8.98;;;1.25;;
22417;SDS011;11376;50.932;4.442;2023-04-23T10:34:51;7.60;;;1.33;;
22417;SDS011;11376;50.932;4.442;2023-04-23T10:37:18;5.78;;;0.90;;
22417;SDS011;11376;50.932;4.442;2023-04-23T10:39:45;4.57;;;0.90;;
22417;SDS011;11376;50.932;4.442;2023-04-23T10:42:14;6.43;;;1.38;;
22417;SDS011;11376;50.932;4.442;2023-04-23T10:44:42;5.50;;;1.10;;
22417;SDS011;11376;50.932;4.442;2023-04-23T10:47:11;10.90;;;1.23;;
22417;SDS011;11376;50.932;4.442;2023-04-23T10:49:41;4.95;;;0.90;;
22417;SDS011;11376;50.932;4.442;2023-04-23T10:52:09;7.50;;;0.95;;
22417;SDS011;11376;50.932;4.442;2023-04-23T10:54:39;5.10;;;0.80;;
22417;SDS011;11376;50.932;4.442;2023-04-23T10:57:07;7.20;;;1.13;;
22417;SDS011;11376;50.932;4.442;2023-04-23T10:59:37;5.32;;;0.70;;
22417;SDS011;11376;50.932;4.442;2023-04-23T11:02:08;6.13;;;1.30;;
22417;SDS011;11376;50.932;4.442;2023-04-23T11:04:40;3.28;;;1.02;;
22417;SDS011;11376;50.932;4.442;2023-04-23T11:07:09;5.07;;;0.80;;
22417;SDS011;11376;50.932;4.442;2023-04-23T11:09:37;10.88;;;1.30;;
22417;SDS011;11376;50.932;4.442;2023-04-23T11:12:07;10.43;;;1.17;;
22417;SDS011;11376;50.932;4.442;2023-04-23T11:14:49;5.78;;;1.17;;
22417;SDS011;11376;50.932;4.442;2023-04-23T11:17:16;5.68;;;1.30;;
22417;SDS011;11376;50.932;4.442;2023-04-23T11:22:35;4.03;;;0.90;;
22417;SDS011;11376;50.932;4.442;2023-04-23T11:25:02;7.28;;;1.38;;
22417;SDS011;11376;50.932;4.442;2023-04-23T11:27:29;4.47;;;0.90;;
22417;SDS011;11376;50.932;4.442;2023-04-23T11:29:56;6.85;;;1.23;;
22417;SDS011;11376;50.932;4.442;2023-04-23T11:32:22;8.35;;;1.23;;
22417;SDS011;11376;50.932;4.442;2023-04-23T11:34:48;8.80;;;1.30;;
22417;SDS011;11376;50.932;4.442;2023-04-23T11:37:15;6.93;;;0.98;;
22417;SDS011;11376;50.932;4.442;2023-04-23T11:39:42;6.75;;;1.25;;
22417;SDS011;11376;50.932;4.442;2023-04-23T11:42:10;7.75;;;1.20;;
22417;SDS011;11376;50.932;4.442;2023-04-23T11:44:37;10.00;;;1.67;;
22417;SDS011;11376;50.932;4.442;2023-04-23T11:47:05;7.82;;;1.40;;
22417;SDS011;11376;50.932;4.442;2023-04-23T11:49:32;6.65;;;1.00;;
22417;SDS011;11376;50.932;4.442;2023-04-23T11:51:59;8.20;;;1.23;;
22417;SDS011;11376;50.932;4.442;2023-04-23T11:54:26;8.45;;;1.30;;
22417;SDS011;11376;50.932;4.442;2023-04-23T11:56:52;10.65;;;1.35;;
22417;SDS011;11376;50.932;4.442;2023-04-23T11:59:18;2.08;;;0.50;;
22417;SDS011;11376;50.932;4.442;2023-04-23T12:01:45;7.43;;;0.93;;
22417;SDS011;11376;50.932;4.442;2023-04-23T12:04:13;4.00;;;0.98;;
22417;SDS011;11376;50.932;4.442;2023-04-23T12:06:41;8.10;;;1.00;;
22417;SDS011;11376;50.932;4.442;2023-04-23T12:09:08;6.38;;;0.85;;
22417;SDS011;11376;50.932;4.442;2023-04-23T12:11:36;5.55;;;0.90;;
22417;SDS011;11376;50.932;4.442;2023-04-23T12:14:03;3.03;;;0.90;;
22417;SDS011;11376;50.932;4.442;2023-04-23T12:16:36;5.57;;;1.07;;
22417;SDS011;11376;50.932;4.442;2023-04-23T12:19:08;8.15;;;1.60;;
22417;SDS011;11376;50.932;4.442;2023-04-23T12:21:36;4.13;;;0.80;;
22417;SDS011;11376;50.932;4.442;2023-04-23T12:24:15;10.80;;;2.17;;
22417;SDS011;11376;50.932;4.442;2023-04-23T12:26:40;5.97;;;1.20;;
22417;SDS011;11376;50.932;4.442;2023-04-23T12:29:07;5.57;;;1.17;;
22417;SDS011;11376;50.932;4.442;2023-04-23T12:31:35;6.60;;;1.33;;
22417;SDS011;11376;50.932;4.442;2023-04-23T12:34:06;6.30;;;1.10;;
22417;SDS011;11376;50.932;4.442;2023-04-23T12:36:34;6.33;;;1.00;;
22417;SDS011;11376;50.932;4.442;2023-04-23T12:39:19;6.43;;;1.03;;
22417;SDS011;11376;50.932;4.442;2023-04-23T12:41:50;6.00;;;1.37;;
22417;SDS011;11376;50.932;4.442;2023-04-23T12:44:21;10.53;;;1.50;;
22417;SDS011;11376;50.932;4.442;2023-04-23T12:46:48;4.30;;;0.90;;
22417;SDS011;11376;50.932;4.442;2023-04-23T12:49:18;7.90;;;1.63;;
22417;SDS011;11376;50.932;4.442;2023-04-23T12:51:43;6.17;;;1.23;;
22417;SDS011;11376;50.932;4.442;2023-04-23T12:54:10;5.50;;;1.10;;
22417;SDS011;11376;50.932;4.442;2023-04-23T12:56:35;6.00;;;1.20;;
22417;SDS011;11376;50.932;4.442;2023-04-23T12:59:01;6.50;;;1.00;;
22417;SDS011;11376;50.932;4.442;2023-04-23T13:01:29;6.10;;;0.93;;
22417;SDS011;11376;50.932;4.442;2023-04-23T13:03:55;5.43;;;1.00;;
22417;SDS011;11376;50.932;4.442;2023-04-23T13:06:20;5.47;;;1.67;;
22417;SDS011;11376;50.932;4.442;2023-04-23T13:08:46;7.43;;;1.37;;
22417;SDS011;11376;50.932;4.442;2023-04-23T13:11:12;6.63;;;1.10;;
22417;SDS011;11376;50.932;4.442;2023-04-23T13:13:37;6.63;;;1.47;;
22417;SDS011;11376;50.932;4.442;2023-04-23T13:16:03;8.17;;;1.40;;
22417;SDS011;11376;50.932;4.442;2023-04-23T13:18:29;3.87;;;1.20;;
22417;SDS011;11376;50.932;4.442;2023-04-23T13:20:54;4.63;;;1.10;;
22417;SDS011;11376;50.932;4.442;2023-04-23T13:23:21;4.60;;;1.20;;
22417;SDS011;11376;50.932;4.442;2023-04-23T13:25:47;4.33;;;1.27;;
22417;SDS011;11376;50.932;4.442;2023-04-23T13:28:12;5.27;;;1.20;;
22417;SDS011;11376;50.932;4.442;2023-04-23T13:30:38;5.00;;;1.40;;
22417;SDS011;11376;50.932;4.442;2023-04-23T13:33:04;3.53;;;1.30;;
22417;SDS011;11376;50.932;4.442;2023-04-23T13:35:30;7.07;;;1.30;;
22417;SDS011;11376;50.932;4.442;2023-04-23T13:37:55;5.70;;;1.30;;
22417;SDS011;11376;50.932;4.442;2023-04-23T13:40:22;4.37;;;1.37;;
22417;SDS011;11376;50.932;4.442;2023-04-23T13:42:48;6.07;;;1.50;;
22417;SDS011;11376;50.932;4.442;2023-04-23T13:45:15;5.97;;;1.50;;
22417;SDS011;11376;50.932;4.442;2023-04-23T13:47:40;5.03;;;1.30;;
22417;SDS011;11376;50.932;4.442;2023-04-23T13:50:06;7.10;;;1.20;;
22417;SDS011;11376;50.932;4.442;2023-04-23T13:52:34;6.77;;;1.37;;
22417;SDS011;11376;50.932;4.442;2023-04-23T13:55:01;3.37;;;1.07;;
22417;SDS011;11376;50.932;4.442;2023-04-23T13:57:28;4.40;;;1.00;;
22417;SDS011;11376;50.932;4.442;2023-04-23T13:59:54;4.37;;;1.17;;
22417;SDS011;11376;50.932;4.442;2023-04-23T14:02:20;4.27;;;1.33;;
22417;SDS011;11376;50.932;4.442;2023-04-23T14:04:46;4.53;;;1.50;;
22417;SDS011;11376;50.932;4.442;2023-04-23T14:07:11;3.43;;;1.10;;
22417;SDS011;11376;50.932;4.442;2023-04-23T14:09:37;5.07;;;1.47;;
22417;SDS011;11376;50.932;4.442;2023-04-23T14:12:03;6.40;;;1.40;;
22417;SDS011;11376;50.932;4.442;2023-04-23T14:14:29;7.53;;;1.53;;
22417;SDS011;11376;50.932;4.442;2023-04-23T14:16:55;6.93;;;1.40;;
22417;SDS011;11376;50.932;4.442;2023-04-23T14:19:20;7.90;;;1.70;;
22417;SDS011;11376;50.932;4.442;2023-04-23T14:21:46;3.90;;;1.47;;
22417;SDS011;11376;50.932;4.442;2023-04-23T14:26:42;6.97;;;1.70;;
22417;SDS011;11376;50.932;4.442;2023-04-23T14:31:51;4.68;;;1.40;;
22417;SDS011;11376;50.932;4.442;2023-04-23T14:34:17;5.97;;;1.50;;
22417;SDS011;11376;50.932;4.442;2023-04-23T14:36:42;4.72;;;1.52;;
22417;SDS011;11376;50.932;4.442;2023-04-23T14:39:10;4.38;;;1.58;;
22417;SDS011;11376;50.932;4.442;2023-04-23T14:41:36;4.57;;;1.50;;
22417;SDS011;11376;50.932;4.442;2023-04-23T14:44:04;3.65;;;1.20;;
22417;SDS011;11376;50.932;4.442;2023-04-23T14:46:29;4.38;;;1.33;;